sensor_id;sensor_type;location;lat;lon;timestamp;P1;durP1;ratioP1;P2;durP2;ratioP2
27424;SDS011;15244;49.088;11.886;2023-08-17T00:04:08;4.15;;;3.83;;
27424;SDS011;15244;49.088;11.886;2023-08-17T00:09:10;3.80;;;3.50;;
27424;SDS011;15244;49.088;11.886;2023-08-17T00:14:13;3.92;;;3.63;;
27424;SDS011;15244;49.088;11.886;2023-08-17T00:19:15;4.65;;;4.25;;
27424;SDS011;15244;49.088;11.886;2023-08-17T00:24:17;4.45;;;4.15;;
27424;SDS011;15244;49.088;11.886;2023-08-17T00:29:18;3.97;;;3.67;;
27424;SDS011;15244;49.088;11.886;2023-08-17T00:34:20;3.97;;;3.63;;
27424;SDS011;15244;49.088;11.886;2023-08-17T00:39:22;4.20;;;3.63;;
27424;SDS011;15244;49.088;11.886;2023-08-17T00:44:23;7.00;;;4.07;;
27424;SDS011;15244;49.088;11.886;2023-08-17T00:49:25;4.50;;;4.20;;
27424;SDS011;15244;49.088;11.886;2023-08-17T00:54:27;4.32;;;3.92;;
27424;SDS011;15244;49.088;11.886;2023-08-17T00:59:30;3.95;;;3.70;;
27424;SDS011;15244;49.088;11.886;2023-08-17T01:04:37;5.28;;;4.68;;
27424;SDS011;15244;49.088;11.886;2023-08-17T01:09:39;6.13;;;4.72;;
27424;SDS011;15244;49.088;11.886;2023-08-17T01:20:01;4.78;;;4.43;;
27424;SDS011;15244;49.088;11.886;2023-08-17T01:25:07;4.47;;;4.18;;
27424;SDS011;15244;49.088;11.886;2023-08-17T01:30:11;4.93;;;4.47;;
27424;SDS011;15244;49.088;11.886;2023-08-17T01:35:28;5.30;;;4.90;;
27424;SDS011;15244;49.088;11.886;2023-08-17T01:40:35;5.30;;;4.40;;
27424;SDS011;15244;49.088;11.886;2023-08-17T01:45:37;4.72;;;4.30;;
27424;SDS011;15244;49.088;11.886;2023-08-17T01:50:39;4.78;;;4.47;;
27424;SDS011;15244;49.088;11.886;2023-08-17T01:55:41;5.18;;;4.70;;
27424;SDS011;15244;49.088;11.886;2023-08-17T02:00:42;5.10;;;4.50;;
27424;SDS011;15244;49.088;11.886;2023-08-17T02:05:47;5.68;;;5.07;;
27424;SDS011;15244;49.088;11.886;2023-08-17T02:10:50;5.68;;;4.95;;
27424;SDS011;15244;49.088;11.886;2023-08-17T02:15:52;4.93;;;4.53;;
27424;SDS011;15244;49.088;11.886;2023-08-17T02:20:54;5.20;;;4.80;;
27424;SDS011;15244;49.088;11.886;2023-08-17T02:25:55;5.85;;;5.40;;
27424;SDS011;15244;49.088;11.886;2023-08-17T02:30:57;5.13;;;4.63;;
27424;SDS011;15244;49.088;11.886;2023-08-17T02:36:02;5.47;;;5.03;;
27424;SDS011;15244;49.088;11.886;2023-08-17T02:41:04;5.28;;;4.78;;
27424;SDS011;15244;49.088;11.886;2023-08-17T02:46:05;5.20;;;4.80;;
27424;SDS011;15244;49.088;11.886;2023-08-17T02:51:11;4.78;;;4.47;;
27424;SDS011;15244;49.088;11.886;2023-08-17T02:56:12;4.65;;;4.35;;
27424;SDS011;15244;49.088;11.886;2023-08-17T03:01:14;5.43;;;5.00;;
27424;SDS011;15244;49.088;11.886;2023-08-17T03:06:15;5.03;;;4.65;;
27424;SDS011;15244;49.088;11.886;2023-08-17T03:11:17;5.80;;;5.32;;
27424;SDS011;15244;49.088;11.886;2023-08-17T03:16:19;5.68;;;5.18;;
27424;SDS011;15244;49.088;11.886;2023-08-17T03:21:20;5.00;;;4.50;;
27424;SDS011;15244;49.088;11.886;2023-08-17T03:26:22;8.88;;;4.72;;
27424;SDS011;15244;49.088;11.886;2023-08-17T03:31:24;5.15;;;4.65;;
27424;SDS011;15244;49.088;11.886;2023-08-17T03:36:26;5.10;;;4.50;;
27424;SDS011;15244;49.088;11.886;2023-08-17T03:41:28;5.10;;;4.72;;
27424;SDS011;15244;49.088;11.886;2023-08-17T03:46:29;5.40;;;4.93;;
27424;SDS011;15244;49.088;11.886;2023-08-17T03:51:31;5.13;;;4.72;;
27424;SDS011;15244;49.088;11.886;2023-08-17T03:56:33;5.00;;;4.60;;
27424;SDS011;15244;49.088;11.886;2023-08-17T04:01:35;7.00;;;5.20;;
27424;SDS011;15244;49.088;11.886;2023-08-17T04:06:37;5.20;;;4.80;;
27424;SDS011;15244;49.088;11.886;2023-08-17T04:11:41;5.35;;;4.95;;
27424;SDS011;15244;49.088;11.886;2023-08-17T04:16:43;5.75;;;5.25;;
27424;SDS011;15244;49.088;11.886;2023-08-17T04:21:45;5.18;;;4.78;;
27424;SDS011;15244;49.088;11.886;2023-08-17T04:26:46;5.43;;;4.93;;
27424;SDS011;15244;49.088;11.886;2023-08-17T04:31:48;5.20;;;4.80;;
27424;SDS011;15244;49.088;11.886;2023-08-17T04:36:50;6.65;;;5.80;;
27424;SDS011;15244;49.088;11.886;2023-08-17T04:41:52;5.78;;;5.00;;
27424;SDS011;15244;49.088;11.886;2023-08-17T04:52:02;5.57;;;5.18;;
27424;SDS011;15244;49.088;11.886;2023-08-17T04:57:04;4.95;;;4.57;;
27424;SDS011;15244;49.088;11.886;2023-08-17T05:02:07;5.05;;;4.60;;
27424;SDS011;15244;49.088;11.886;2023-08-17T05:07:09;5.15;;;4.85;;
27424;SDS011;15244;49.088;11.886;2023-08-17T05:12:10;5.55;;;5.25;;
27424;SDS011;15244;49.088;11.886;2023-08-17T05:17:12;6.25;;;5.18;;
27424;SDS011;15244;49.088;11.886;2023-08-17T05:22:14;5.00;;;4.70;;
27424;SDS011;15244;49.088;11.886;2023-08-17T05:27:15;5.60;;;4.75;;
27424;SDS011;15244;49.088;11.886;2023-08-17T05:32:18;8.70;;;5.10;;
27424;SDS011;15244;49.088;11.886;2023-08-17T05:37:22;5.05;;;4.57;;
27424;SDS011;15244;49.088;11.886;2023-08-17T05:42:24;5.00;;;4.60;;
27424;SDS011;15244;49.088;11.886;2023-08-17T05:47:26;5.40;;;5.10;;
27424;SDS011;15244;49.088;11.886;2023-08-17T05:52:28;5.50;;;5.10;;
27424;SDS011;15244;49.088;11.886;2023-08-17T05:57:30;5.78;;;5.22;;
27424;SDS011;15244;49.088;11.886;2023-08-17T06:02:31;5.57;;;5.18;;
27424;SDS011;15244;49.088;11.886;2023-08-17T06:07:33;5.28;;;4.85;;
27424;SDS011;15244;49.088;11.886;2023-08-17T06:12:35;5.43;;;5.05;;
27424;SDS011;15244;49.088;11.886;2023-08-17T06:17:36;5.38;;;4.97;;
27424;SDS011;15244;49.088;11.886;2023-08-17T06:22:38;5.60;;;5.10;;
27424;SDS011;15244;49.088;11.886;2023-08-17T06:27:40;5.20;;;4.90;;
27424;SDS011;15244;49.088;11.886;2023-08-17T06:32:43;5.35;;;5.05;;
27424;SDS011;15244;49.088;11.886;2023-08-17T06:37:44;5.60;;;5.10;;
27424;SDS011;15244;49.088;11.886;2023-08-17T06:42:46;5.72;;;5.30;;
27424;SDS011;15244;49.088;11.886;2023-08-17T06:47:47;5.75;;;5.30;;
27424;SDS011;15244;49.088;11.886;2023-08-17T06:52:50;5.25;;;4.95;;
27424;SDS011;15244;49.088;11.886;2023-08-17T06:57:51;5.68;;;5.30;;
27424;SDS011;15244;49.088;11.886;2023-08-17T07:02:53;5.93;;;5.47;;
27424;SDS011;15244;49.088;11.886;2023-08-17T07:07:59;5.53;;;5.22;;
27424;SDS011;15244;49.088;11.886;2023-08-17T07:13:01;6.70;;;6.30;;
27424;SDS011;15244;49.088;11.886;2023-08-17T07:18:04;6.43;;;5.82;;
27424;SDS011;15244;49.088;11.886;2023-08-17T07:23:06;6.63;;;6.05;;
27424;SDS011;15244;49.088;11.886;2023-08-17T07:28:08;6.53;;;6.00;;
27424;SDS011;15244;49.088;11.886;2023-08-17T07:33:10;6.63;;;6.22;;
27424;SDS011;15244;49.088;11.886;2023-08-17T07:38:11;6.90;;;6.40;;
27424;SDS011;15244;49.088;11.886;2023-08-17T07:43:13;6.57;;;6.05;;
27424;SDS011;15244;49.088;11.886;2023-08-17T07:48:15;11.02;;;6.93;;
27424;SDS011;15244;49.088;11.886;2023-08-17T07:53:17;6.53;;;6.13;;
27424;SDS011;15244;49.088;11.886;2023-08-17T07:58:19;6.18;;;5.68;;
27424;SDS011;15244;49.088;11.886;2023-08-17T08:03:21;5.85;;;5.50;;
27424;SDS011;15244;49.088;11.886;2023-08-17T08:08:23;6.63;;;6.07;;
27424;SDS011;15244;49.088;11.886;2023-08-17T08:13:25;6.00;;;5.60;;
27424;SDS011;15244;49.088;11.886;2023-08-17T08:18:27;6.25;;;5.75;;
27424;SDS011;15244;49.088;11.886;2023-08-17T08:23:29;5.70;;;5.30;;
27424;SDS011;15244;49.088;11.886;2023-08-17T08:28:30;6.05;;;5.55;;
27424;SDS011;15244;49.088;11.886;2023-08-17T08:33:32;6.63;;;6.22;;
27424;SDS011;15244;49.088;11.886;2023-08-17T08:38:34;5.93;;;5.53;;
27424;SDS011;15244;49.088;11.886;2023-08-17T08:43:35;6.88;;;6.38;;
27424;SDS011;15244;49.088;11.886;2023-08-17T08:48:37;6.22;;;5.80;;
27424;SDS011;15244;49.088;11.886;2023-08-17T08:53:43;6.75;;;6.25;;
27424;SDS011;15244;49.088;11.886;2023-08-17T08:58:46;6.72;;;5.95;;
27424;SDS011;15244;49.088;11.886;2023-08-17T09:03:55;6.68;;;6.22;;
27424;SDS011;15244;49.088;11.886;2023-08-17T09:08:58;6.50;;;6.20;;
27424;SDS011;15244;49.088;11.886;2023-08-17T09:14:00;6.82;;;6.30;;
27424;SDS011;15244;49.088;11.886;2023-08-17T09:19:02;6.97;;;6.47;;
27424;SDS011;15244;49.088;11.886;2023-08-17T09:24:06;6.50;;;6.10;;
27424;SDS011;15244;49.088;11.886;2023-08-17T09:29:18;6.18;;;5.78;;
27424;SDS011;15244;49.088;11.886;2023-08-17T09:34:24;6.05;;;5.72;;
27424;SDS011;15244;49.088;11.886;2023-08-17T09:39:26;6.57;;;6.18;;
27424;SDS011;15244;49.088;11.886;2023-08-17T09:44:27;5.68;;;5.35;;
27424;SDS011;15244;49.088;11.886;2023-08-17T09:49:32;8.48;;;6.93;;
27424;SDS011;15244;49.088;11.886;2023-08-17T09:54:37;6.10;;;5.70;;
27424;SDS011;15244;49.088;11.886;2023-08-17T09:59:39;5.97;;;5.63;;
27424;SDS011;15244;49.088;11.886;2023-08-17T10:04:41;6.35;;;5.93;;
27424;SDS011;15244;49.088;11.886;2023-08-17T10:09:44;6.43;;;5.93;;
27424;SDS011;15244;49.088;11.886;2023-08-17T10:14:53;5.68;;;5.28;;
27424;SDS011;15244;49.088;11.886;2023-08-17T10:19:58;5.95;;;5.55;;
27424;SDS011;15244;49.088;11.886;2023-08-17T10:25:00;5.38;;;5.07;;
27424;SDS011;15244;49.088;11.886;2023-08-17T10:30:02;5.78;;;5.28;;
27424;SDS011;15244;49.088;11.886;2023-08-17T10:35:09;5.80;;;5.40;;
27424;SDS011;15244;49.088;11.886;2023-08-17T10:40:11;5.78;;;5.38;;
27424;SDS011;15244;49.088;11.886;2023-08-17T10:45:29;4.78;;;4.47;;
27424;SDS011;15244;49.088;11.886;2023-08-17T10:50:33;5.30;;;5.03;;
27424;SDS011;15244;49.088;11.886;2023-08-17T10:55:36;5.13;;;4.82;;
27424;SDS011;15244;49.088;11.886;2023-08-17T11:00:40;5.00;;;4.70;;
27424;SDS011;15244;49.088;11.886;2023-08-17T11:05:53;5.22;;;4.80;;
27424;SDS011;15244;49.088;11.886;2023-08-17T11:11:06;4.53;;;4.32;;
27424;SDS011;15244;49.088;11.886;2023-08-17T11:16:15;4.70;;;4.47;;
27424;SDS011;15244;49.088;11.886;2023-08-17T11:21:19;4.82;;;4.57;;
27424;SDS011;15244;49.088;11.886;2023-08-17T11:26:21;4.65;;;4.38;;
27424;SDS011;15244;49.088;11.886;2023-08-17T11:31:24;5.30;;;5.00;;
27424;SDS011;15244;49.088;11.886;2023-08-17T11:36:26;4.90;;;4.68;;
27424;SDS011;15244;49.088;11.886;2023-08-17T11:41:29;5.03;;;4.72;;
27424;SDS011;15244;49.088;11.886;2023-08-17T11:46:31;4.18;;;3.97;;
27424;SDS011;15244;49.088;11.886;2023-08-17T11:51:33;4.38;;;4.10;;
27424;SDS011;15244;49.088;11.886;2023-08-17T11:56:36;4.40;;;4.10;;
27424;SDS011;15244;49.088;11.886;2023-08-17T12:01:38;4.50;;;4.30;;
27424;SDS011;15244;49.088;11.886;2023-08-17T12:06:43;4.32;;;4.13;;
27424;SDS011;15244;49.088;11.886;2023-08-17T12:11:52;4.50;;;4.20;;
27424;SDS011;15244;49.088;11.886;2023-08-17T12:16:59;3.95;;;3.75;;
27424;SDS011;15244;49.088;11.886;2023-08-17T12:22:01;4.18;;;3.97;;
27424;SDS011;15244;49.088;11.886;2023-08-17T12:27:04;4.80;;;4.50;;
27424;SDS011;15244;49.088;11.886;2023-08-17T12:32:07;4.10;;;3.90;;
27424;SDS011;15244;49.088;11.886;2023-08-17T12:37:09;4.65;;;4.32;;
27424;SDS011;15244;49.088;11.886;2023-08-17T12:42:11;4.18;;;3.85;;
27424;SDS011;15244;49.088;11.886;2023-08-17T12:47:13;3.80;;;3.60;;
27424;SDS011;15244;49.088;11.886;2023-08-17T12:52:15;4.35;;;3.90;;
27424;SDS011;15244;49.088;11.886;2023-08-17T12:57:17;4.68;;;4.28;;
27424;SDS011;15244;49.088;11.886;2023-08-17T13:02:19;3.72;;;3.53;;
27424;SDS011;15244;49.088;11.886;2023-08-17T13:07:21;3.63;;;3.42;;
27424;SDS011;15244;49.088;11.886;2023-08-17T13:12:23;3.85;;;3.55;;
27424;SDS011;15244;49.088;11.886;2023-08-17T13:17:26;4.50;;;4.20;;
27424;SDS011;15244;49.088;11.886;2023-08-17T13:22:28;3.95;;;3.75;;
27424;SDS011;15244;49.088;11.886;2023-08-17T13:27:30;3.58;;;3.38;;
27424;SDS011;15244;49.088;11.886;2023-08-17T13:32:33;3.72;;;3.53;;
27424;SDS011;15244;49.088;11.886;2023-08-17T13:37:36;5.15;;;4.18;;
27424;SDS011;15244;49.088;11.886;2023-08-17T13:42:38;4.07;;;3.75;;
27424;SDS011;15244;49.088;11.886;2023-08-17T13:47:41;3.67;;;3.47;;
27424;SDS011;15244;49.088;11.886;2023-08-17T13:52:43;3.67;;;3.47;;
27424;SDS011;15244;49.088;11.886;2023-08-17T13:57:45;3.95;;;3.75;;
27424;SDS011;15244;49.088;11.886;2023-08-17T14:02:48;3.85;;;3.60;;
27424;SDS011;15244;49.088;11.886;2023-08-17T14:07:49;3.28;;;3.08;;
27424;SDS011;15244;49.088;11.886;2023-08-17T14:12:51;2.90;;;2.80;;
27424;SDS011;15244;49.088;11.886;2023-08-17T14:17:53;3.80;;;3.40;;
27424;SDS011;15244;49.088;11.886;2023-08-17T14:22:54;3.30;;;3.10;;
27424;SDS011;15244;49.088;11.886;2023-08-17T14:27:57;3.42;;;3.10;;
27424;SDS011;15244;49.088;11.886;2023-08-17T14:33:00;3.00;;;2.80;;
27424;SDS011;15244;49.088;11.886;2023-08-17T14:38:02;3.17;;;3.00;;
27424;SDS011;15244;49.088;11.886;2023-08-17T14:43:04;2.85;;;2.70;;
27424;SDS011;15244;49.088;11.886;2023-08-17T14:48:06;3.10;;;2.90;;
27424;SDS011;15244;49.088;11.886;2023-08-17T14:53:08;3.20;;;3.00;;
27424;SDS011;15244;49.088;11.886;2023-08-17T14:58:11;2.70;;;2.55;;
27424;SDS011;15244;49.088;11.886;2023-08-17T15:03:13;2.88;;;2.67;;
27424;SDS011;15244;49.088;11.886;2023-08-17T15:08:15;2.72;;;2.53;;
27424;SDS011;15244;49.088;11.886;2023-08-17T15:13:17;3.58;;;2.67;;
27424;SDS011;15244;49.088;11.886;2023-08-17T15:18:19;2.78;;;2.65;;
27424;SDS011;15244;49.088;11.886;2023-08-17T15:23:24;2.40;;;2.30;;
27424;SDS011;15244;49.088;11.886;2023-08-17T15:28:26;2.80;;;2.60;;
27424;SDS011;15244;49.088;11.886;2023-08-17T15:33:28;2.88;;;2.78;;
27424;SDS011;15244;49.088;11.886;2023-08-17T15:38:30;4.72;;;2.58;;
27424;SDS011;15244;49.088;11.886;2023-08-17T15:43:32;3.10;;;2.95;;
27424;SDS011;15244;49.088;11.886;2023-08-17T15:48:34;2.22;;;2.13;;
27424;SDS011;15244;49.088;11.886;2023-08-17T15:53:35;3.08;;;2.80;;
27424;SDS011;15244;49.088;11.886;2023-08-17T15:58:40;4.75;;;2.60;;
27424;SDS011;15244;49.088;11.886;2023-08-17T16:03:43;3.25;;;3.00;;
27424;SDS011;15244;49.088;11.886;2023-08-17T16:08:45;2.85;;;2.65;;
27424;SDS011;15244;49.088;11.886;2023-08-17T16:13:50;2.80;;;2.60;;
27424;SDS011;15244;49.088;11.886;2023-08-17T16:18:51;2.85;;;2.75;;
27424;SDS011;15244;49.088;11.886;2023-08-17T16:23:54;3.25;;;2.83;;
27424;SDS011;15244;49.088;11.886;2023-08-17T16:28:55;3.03;;;2.92;;
27424;SDS011;15244;49.088;11.886;2023-08-17T16:33:57;3.25;;;3.00;;
27424;SDS011;15244;49.088;11.886;2023-08-17T16:38:59;2.83;;;2.63;;
27424;SDS011;15244;49.088;11.886;2023-08-17T16:44:01;3.33;;;3.03;;
27424;SDS011;15244;49.088;11.886;2023-08-17T16:49:06;3.05;;;2.83;;
27424;SDS011;15244;49.088;11.886;2023-08-17T16:54:07;3.05;;;2.85;;
27424;SDS011;15244;49.088;11.886;2023-08-17T16:59:09;4.22;;;3.50;;
27424;SDS011;15244;49.088;11.886;2023-08-17T17:04:12;3.00;;;2.80;;
27424;SDS011;15244;49.088;11.886;2023-08-17T17:09:14;2.50;;;2.40;;
27424;SDS011;15244;49.088;11.886;2023-08-17T17:14:15;3.10;;;2.90;;
27424;SDS011;15244;49.088;11.886;2023-08-17T17:19:17;4.97;;;3.10;;
27424;SDS011;15244;49.088;11.886;2023-08-17T17:24:19;2.70;;;2.60;;
27424;SDS011;15244;49.088;11.886;2023-08-17T17:29:24;5.18;;;3.75;;
27424;SDS011;15244;49.088;11.886;2023-08-17T17:34:26;7.75;;;2.70;;
27424;SDS011;15244;49.088;11.886;2023-08-17T17:39:27;2.38;;;2.17;;
27424;SDS011;15244;49.088;11.886;2023-08-17T17:44:29;2.40;;;2.28;;
27424;SDS011;15244;49.088;11.886;2023-08-17T17:49:30;2.40;;;1.90;;
27424;SDS011;15244;49.088;11.886;2023-08-17T17:54:32;2.30;;;2.20;;
27424;SDS011;15244;49.088;11.886;2023-08-17T17:59:38;4.38;;;2.75;;
27424;SDS011;15244;49.088;11.886;2023-08-17T18:04:40;2.58;;;2.38;;
27424;SDS011;15244;49.088;11.886;2023-08-17T18:09:41;2.88;;;2.67;;
27424;SDS011;15244;49.088;11.886;2023-08-17T18:14:43;3.17;;;2.88;;
27424;SDS011;15244;49.088;11.886;2023-08-17T18:19:46;3.20;;;3.00;;
27424;SDS011;15244;49.088;11.886;2023-08-17T18:24:47;3.03;;;2.83;;
27424;SDS011;15244;49.088;11.886;2023-08-17T18:29:49;2.30;;;2.20;;
27424;SDS011;15244;49.088;11.886;2023-08-17T18:34:50;2.22;;;2.10;;
27424;SDS011;15244;49.088;11.886;2023-08-17T18:39:52;2.22;;;2.13;;
27424;SDS011;15244;49.088;11.886;2023-08-17T18:44:54;2.38;;;2.17;;
27424;SDS011;15244;49.088;11.886;2023-08-17T18:49:56;1.77;;;1.67;;
27424;SDS011;15244;49.088;11.886;2023-08-17T18:54:58;1.65;;;1.60;;
27424;SDS011;15244;49.088;11.886;2023-08-17T19:00:01;1.77;;;1.67;;
27424;SDS011;15244;49.088;11.886;2023-08-17T19:05:04;3.00;;;1.60;;
27424;SDS011;15244;49.088;11.886;2023-08-17T19:10:07;6.18;;;1.98;;
27424;SDS011;15244;49.088;11.886;2023-08-17T19:15:09;3.67;;;1.90;;
27424;SDS011;15244;49.088;11.886;2023-08-17T19:20:11;1.52;;;1.42;;
27424;SDS011;15244;49.088;11.886;2023-08-17T19:25:12;1.95;;;1.70;;
27424;SDS011;15244;49.088;11.886;2023-08-17T19:30:18;2.25;;;1.90;;
27424;SDS011;15244;49.088;11.886;2023-08-17T19:35:20;1.60;;;1.50;;
27424;SDS011;15244;49.088;11.886;2023-08-17T19:40:22;2.35;;;1.67;;
27424;SDS011;15244;49.088;11.886;2023-08-17T19:45:24;1.60;;;1.50;;
27424;SDS011;15244;49.088;11.886;2023-08-17T19:50:26;2.03;;;1.30;;
27424;SDS011;15244;49.088;11.886;2023-08-17T19:55:28;1.38;;;1.30;;
27424;SDS011;15244;49.088;11.886;2023-08-17T20:00:30;1.45;;;1.42;;
27424;SDS011;15244;49.088;11.886;2023-08-17T20:05:32;1.20;;;1.10;;
27424;SDS011;15244;49.088;11.886;2023-08-17T20:10:34;1.30;;;1.20;;
27424;SDS011;15244;49.088;11.886;2023-08-17T20:15:36;1.63;;;1.50;;
27424;SDS011;15244;49.088;11.886;2023-08-17T20:20:48;1.30;;;1.20;;
27424;SDS011;15244;49.088;11.886;2023-08-17T20:25:55;1.50;;;1.40;;
27424;SDS011;15244;49.088;11.886;2023-08-17T20:30:58;1.45;;;1.10;;
27424;SDS011;15244;49.088;11.886;2023-08-17T20:36:00;1.20;;;1.20;;
27424;SDS011;15244;49.088;11.886;2023-08-17T20:41:02;2.75;;;1.55;;
27424;SDS011;15244;49.088;11.886;2023-08-17T20:46:08;1.13;;;1.10;;
27424;SDS011;15244;49.088;11.886;2023-08-17T20:51:11;1.67;;;1.42;;
27424;SDS011;15244;49.088;11.886;2023-08-17T20:56:13;1.20;;;1.10;;
27424;SDS011;15244;49.088;11.886;2023-08-17T21:01:14;1.40;;;1.40;;
27424;SDS011;15244;49.088;11.886;2023-08-17T21:06:20;1.30;;;1.30;;
27424;SDS011;15244;49.088;11.886;2023-08-17T21:11:23;1.80;;;1.70;;
27424;SDS011;15244;49.088;11.886;2023-08-17T21:16:26;1.38;;;1.27;;
27424;SDS011;15244;49.088;11.886;2023-08-17T21:21:29;3.03;;;1.17;;
27424;SDS011;15244;49.088;11.886;2023-08-17T21:26:31;1.27;;;1.20;;
27424;SDS011;15244;49.088;11.886;2023-08-17T21:31:33;1.15;;;1.15;;
27424;SDS011;15244;49.088;11.886;2023-08-17T21:36:36;1.23;;;1.23;;
27424;SDS011;15244;49.088;11.886;2023-08-17T21:41:38;1.27;;;1.20;;
27424;SDS011;15244;49.088;11.886;2023-08-17T21:46:40;1.15;;;1.15;;
27424;SDS011;15244;49.088;11.886;2023-08-17T21:51:42;1.30;;;1.20;;
27424;SDS011;15244;49.088;11.886;2023-08-17T21:56:44;1.10;;;1.10;;
27424;SDS011;15244;49.088;11.886;2023-08-17T22:01:46;1.17;;;0.95;;
27424;SDS011;15244;49.088;11.886;2023-08-17T22:06:48;1.10;;;1.10;;
27424;SDS011;15244;49.088;11.886;2023-08-17T22:11:51;1.40;;;1.30;;
27424;SDS011;15244;49.088;11.886;2023-08-17T22:16:55;2.45;;;1.45;;
27424;SDS011;15244;49.088;11.886;2023-08-17T22:21:58;1.42;;;1.33;;
27424;SDS011;15244;49.088;11.886;2023-08-17T22:27:01;1.40;;;1.30;;
27424;SDS011;15244;49.088;11.886;2023-08-17T22:32:02;1.35;;;1.25;;
27424;SDS011;15244;49.088;11.886;2023-08-17T22:37:04;1.70;;;1.60;;
27424;SDS011;15244;49.088;11.886;2023-08-17T22:42:06;1.60;;;1.50;;
27424;SDS011;15244;49.088;11.886;2023-08-17T22:47:08;1.63;;;1.58;;
27424;SDS011;15244;49.088;11.886;2023-08-17T22:52:10;1.58;;;1.48;;
27424;SDS011;15244;49.088;11.886;2023-08-17T22:57:12;1.48;;;1.45;;
27424;SDS011;15244;49.088;11.886;2023-08-17T23:02:14;2.03;;;1.60;;
27424;SDS011;15244;49.088;11.886;2023-08-17T23:07:15;1.63;;;1.52;;
27424;SDS011;15244;49.088;11.886;2023-08-17T23:12:17;1.92;;;1.60;;
27424;SDS011;15244;49.088;11.886;2023-08-17T23:17:19;1.67;;;1.67;;
27424;SDS011;15244;49.088;11.886;2023-08-17T23:22:21;2.00;;;1.90;;
27424;SDS011;15244;49.088;11.886;2023-08-17T23:27:23;2.03;;;1.92;;
27424;SDS011;15244;49.088;11.886;2023-08-17T23:32:24;2.03;;;1.92;;
27424;SDS011;15244;49.088;11.886;2023-08-17T23:37:29;1.98;;;1.88;;
27424;SDS011;15244;49.088;11.886;2023-08-17T23:42:31;1.77;;;1.67;;
27424;SDS011;15244;49.088;11.886;2023-08-17T23:47:34;1.73;;;1.73;;
27424;SDS011;15244;49.088;11.886;2023-08-17T23:52:37;2.28;;;2.05;;
27424;SDS011;15244;49.088;11.886;2023-08-17T23:57:39;2.00;;;1.90;;
